sensor_id;sensor_type;location;lat;lon;timestamp;pressure;altitude;pressure_sealevel;temperature;humidity
75317;BME280;63913;51.492;10.368;2023-07-20T00:01:10;98097.31;;;16.97;84.18
75317;BME280;63913;51.492;10.368;2023-07-20T00:03:36;98093.84;;;16.99;84.79
75317;BME280;63913;51.492;10.368;2023-07-20T00:06:01;98093.84;;;16.95;84.82
75317;BME280;63913;51.492;10.368;2023-07-20T00:08:27;98082.59;;;16.96;84.13
75317;BME280;63913;51.492;10.368;2023-07-20T00:10:52;98080.88;;;16.95;83.11
75317;BME280;63913;51.492;10.368;2023-07-20T00:13:18;98081.78;;;16.92;84.20
75317;BME280;63913;51.492;10.368;2023-07-20T00:15:44;98073.16;;;16.89;84.91
75317;BME280;63913;51.492;10.368;2023-07-20T00:18:10;98072.38;;;16.79;85.11
75317;BME280;63913;51.492;10.368;2023-07-20T00:20:35;98066.31;;;16.78;86.11
75317;BME280;63913;51.492;10.368;2023-07-20T00:23:00;98060.31;;;16.72;86.10
75317;BME280;63913;51.492;10.368;2023-07-20T00:25:26;98068.09;;;16.75;86.19
75317;BME280;63913;51.492;10.368;2023-07-20T00:27:51;98082.06;;;16.62;87.06
75317;BME280;63913;51.492;10.368;2023-07-20T00:30:18;98078.56;;;16.67;86.91
75317;BME280;63913;51.492;10.368;2023-07-20T00:32:44;98081.94;;;16.75;85.20
75317;BME280;63913;51.492;10.368;2023-07-20T00:35:10;98081.94;;;16.74;86.50
75317;BME280;63913;51.492;10.368;2023-07-20T00:37:36;98077.66;;;16.70;86.02
75317;BME280;63913;51.492;10.368;2023-07-20T00:40:02;98088.00;;;16.71;86.03
75317;BME280;63913;51.492;10.368;2023-07-20T00:42:30;98077.56;;;16.79;85.28
75317;BME280;63913;51.492;10.368;2023-07-20T00:44:56;98087.94;;;16.81;85.46
75317;BME280;63913;51.492;10.368;2023-07-20T00:47:21;98081.09;;;16.70;85.70
75317;BME280;63913;51.492;10.368;2023-07-20T00:49:47;98081.94;;;16.75;85.27
75317;BME280;63913;51.492;10.368;2023-07-20T00:52:14;98081.94;;;16.74;85.49
75317;BME280;63913;51.492;10.368;2023-07-20T00:54:42;98089.75;;;16.71;85.62
75317;BME280;63913;51.492;10.368;2023-07-20T00:57:09;98089.69;;;16.78;86.67
75317;BME280;63913;51.492;10.368;2023-07-20T00:59:35;98091.47;;;16.76;88.03
75317;BME280;63913;51.492;10.368;2023-07-20T01:02:02;98101.78;;;16.79;87.95
75317;BME280;63913;51.492;10.368;2023-07-20T01:04:27;98108.84;;;16.68;90.04
75317;BME280;63913;51.492;10.368;2023-07-20T01:07:10;98127.97;;;16.52;89.00
75317;BME280;63913;51.492;10.368;2023-07-20T01:09:49;98107.38;;;16.26;89.69
75317;BME280;63913;51.492;10.368;2023-07-20T01:12:25;98111.75;;;16.15;89.15
75317;BME280;63913;51.492;10.368;2023-07-20T01:14:51;98097.13;;;16.10;90.54
75317;BME280;63913;51.492;10.368;2023-07-20T01:17:17;98103.16;;;16.13;90.75
75317;BME280;63913;51.492;10.368;2023-07-20T01:19:43;98103.13;;;16.18;87.95
75317;BME280;63913;51.492;10.368;2023-07-20T01:25:23;98094.56;;;15.99;90.28
75317;BME280;63913;51.492;10.368;2023-07-20T01:28:18;98091.13;;;15.98;89.89
75317;BME280;63913;51.492;10.368;2023-07-20T01:33:34;98086.78;;;15.97;90.91
75317;BME280;63913;51.492;10.368;2023-07-20T01:36:00;98092.84;;;15.99;90.96
75317;BME280;63913;51.492;10.368;2023-07-20T01:38:28;98087.69;;;15.93;92.77
75317;BME280;63913;51.492;10.368;2023-07-20T01:40:54;98092.06;;;15.87;87.84
75317;BME280;63913;51.492;10.368;2023-07-20T01:43:20;98083.38;;;15.89;89.65
75317;BME280;63913;51.492;10.368;2023-07-20T01:45:45;98079.09;;;15.84;89.48
75317;BME280;63913;51.492;10.368;2023-07-20T01:48:12;98085.97;;;15.89;90.37
75317;BME280;63913;51.492;10.368;2023-07-20T01:50:37;98090.28;;;15.92;87.55
75317;BME280;63913;51.492;10.368;2023-07-20T01:53:03;98086.88;;;15.85;90.57
75317;BME280;63913;51.492;10.368;2023-07-20T01:55:29;98079.97;;;15.86;91.77
75317;BME280;63913;51.492;10.368;2023-07-20T01:57:55;98090.34;;;15.86;91.21
75317;BME280;63913;51.492;10.368;2023-07-20T02:00:20;98079.97;;;15.84;90.48
75317;BME280;63913;51.492;10.368;2023-07-20T02:02:50;98086.94;;;15.76;89.64
75317;BME280;63913;51.492;10.368;2023-07-20T02:05:16;98097.28;;;15.73;90.32
75317;BME280;63913;51.492;10.368;2023-07-20T02:07:42;98093.00;;;15.66;91.69
75317;BME280;63913;51.492;10.368;2023-07-20T02:10:07;98093.88;;;15.65;92.04
75317;BME280;63913;51.492;10.368;2023-07-20T02:12:34;98099.97;;;15.64;91.60
75317;BME280;63913;51.492;10.368;2023-07-20T02:15:00;98099.09;;;15.60;90.86
75317;BME280;63913;51.492;10.368;2023-07-20T02:17:26;98098.22;;;15.60;91.56
75317;BME280;63913;51.492;10.368;2023-07-20T02:19:56;98101.69;;;15.53;92.57
75317;BME280;63913;51.492;10.368;2023-07-20T02:22:23;98093.84;;;15.74;92.32
75317;BME280;63913;51.492;10.368;2023-07-20T02:24:49;98096.47;;;15.68;92.55
75317;BME280;63913;51.492;10.368;2023-07-20T02:27:15;98098.19;;;15.66;93.46
75317;BME280;63913;51.492;10.368;2023-07-20T02:29:41;98101.69;;;15.57;93.75
75317;BME280;63913;51.492;10.368;2023-07-20T02:32:07;98101.69;;;15.60;92.58
75317;BME280;63913;51.492;10.368;2023-07-20T02:34:33;98094.75;;;15.67;93.85
75317;BME280;63913;51.492;10.368;2023-07-20T02:36:59;98099.97;;;15.62;93.49
75317;BME280;63913;51.492;10.368;2023-07-20T02:39:27;98099.06;;;15.73;92.80
75317;BME280;63913;51.492;10.368;2023-07-20T02:41:52;98106.84;;;15.73;93.23
75317;BME280;63913;51.492;10.368;2023-07-20T02:44:18;98096.44;;;15.79;92.52
75317;BME280;63913;51.492;10.368;2023-07-20T02:46:43;98101.63;;;15.74;92.66
75317;BME280;63913;51.492;10.368;2023-07-20T02:49:09;98104.25;;;15.67;92.53
75317;BME280;63913;51.492;10.368;2023-07-20T02:51:34;98102.56;;;15.61;92.11
75317;BME280;63913;51.492;10.368;2023-07-20T02:54:00;98107.72;;;15.59;92.49
75317;BME280;63913;51.492;10.368;2023-07-20T02:56:26;98111.19;;;15.57;92.84
75317;BME280;63913;51.492;10.368;2023-07-20T02:58:52;98109.47;;;15.59;91.95
75317;BME280;63913;51.492;10.368;2023-07-20T03:01:17;98106.84;;;15.68;92.87
75317;BME280;63913;51.492;10.368;2023-07-20T03:03:43;98102.56;;;15.64;92.01
75317;BME280;63913;51.492;10.368;2023-07-20T03:06:15;98110.28;;;15.69;92.97
75317;BME280;63913;51.492;10.368;2023-07-20T03:08:41;98107.69;;;15.65;93.17
75317;BME280;63913;51.492;10.368;2023-07-20T03:11:07;98103.41;;;15.64;92.39
75317;BME280;63913;51.492;10.368;2023-07-20T03:13:33;98108.56;;;15.71;92.08
75317;BME280;63913;51.492;10.368;2023-07-20T03:15:58;98115.44;;;15.76;92.15
75317;BME280;63913;51.492;10.368;2023-07-20T03:18:24;98115.44;;;15.76;90.82
75317;BME280;63913;51.492;10.368;2023-07-20T03:20:49;98119.78;;;15.65;91.12
75317;BME280;63913;51.492;10.368;2023-07-20T03:23:14;98116.41;;;15.54;90.74
75317;BME280;63913;51.492;10.368;2023-07-20T03:25:41;98113.78;;;15.49;91.01
75317;BME280;63913;51.492;10.368;2023-07-20T03:28:06;98109.47;;;15.41;92.01
75317;BME280;63913;51.492;10.368;2023-07-20T03:30:32;98105.13;;;15.49;91.62
75317;BME280;63913;51.492;10.368;2023-07-20T03:32:58;98110.34;;;15.55;91.34
75317;BME280;63913;51.492;10.368;2023-07-20T03:35:24;98106.03;;;15.54;91.40
75317;BME280;63913;51.492;10.368;2023-07-20T03:37:49;98105.16;;;15.58;91.48
75317;BME280;63913;51.492;10.368;2023-07-20T03:40:14;98102.59;;;15.55;91.80
75317;BME280;63913;51.492;10.368;2023-07-20T03:42:41;98104.31;;;15.54;91.37
75317;BME280;63913;51.492;10.368;2023-07-20T03:45:07;98101.72;;;15.47;91.83
75317;BME280;63913;51.492;10.368;2023-07-20T03:47:33;98107.75;;;15.46;91.79
75317;BME280;63913;51.492;10.368;2023-07-20T03:49:58;98102.56;;;15.49;91.30
75317;BME280;63913;51.492;10.368;2023-07-20T03:52:23;98093.94;;;15.45;91.63
75317;BME280;63913;51.492;10.368;2023-07-20T03:54:49;98084.47;;;15.37;90.08
75317;BME280;63913;51.492;10.368;2023-07-20T03:57:17;98075.84;;;15.33;92.37
75317;BME280;63913;51.492;10.368;2023-07-20T03:59:45;98088.78;;;15.36;91.15
75317;BME280;63913;51.492;10.368;2023-07-20T04:02:11;98091.41;;;15.27;91.41
75317;BME280;63913;51.492;10.368;2023-07-20T04:04:36;98092.25;;;15.38;92.89
75317;BME280;63913;51.492;10.368;2023-07-20T04:07:02;98101.72;;;15.42;92.02
75317;BME280;63913;51.492;10.368;2023-07-20T04:09:27;98113.78;;;15.49;91.27
75317;BME280;63913;51.492;10.368;2023-07-20T04:11:53;98119.00;;;15.54;91.05
75317;BME280;63913;51.492;10.368;2023-07-20T04:14:18;98120.72;;;15.44;87.94
75317;BME280;63913;51.492;10.368;2023-07-20T04:16:46;98114.69;;;15.33;89.88
75317;BME280;63913;51.492;10.368;2023-07-20T04:19:12;98111.25;;;15.37;91.47
75317;BME280;63913;51.492;10.368;2023-07-20T04:21:41;98119.00;;;15.43;90.92
75317;BME280;63913;51.492;10.368;2023-07-20T04:24:07;98108.66;;;15.37;91.51
75317;BME280;63913;51.492;10.368;2023-07-20T04:26:32;98112.09;;;15.35;92.34
75317;BME280;63913;51.492;10.368;2023-07-20T04:28:58;98112.94;;;15.44;92.07
75317;BME280;63913;51.492;10.368;2023-07-20T04:31:36;98114.69;;;15.45;92.86
75317;BME280;63913;51.492;10.368;2023-07-20T04:34:02;98112.94;;;15.41;91.74
75317;BME280;63913;51.492;10.368;2023-07-20T04:36:28;98111.25;;;15.36;90.70
75317;BME280;63913;51.492;10.368;2023-07-20T04:38:54;98116.41;;;15.36;90.96
75317;BME280;63913;51.492;10.368;2023-07-20T04:41:21;98109.50;;;15.36;91.64
75317;BME280;63913;51.492;10.368;2023-07-20T04:43:48;98117.28;;;15.39;91.73
75317;BME280;63913;51.492;10.368;2023-07-20T04:46:20;98120.75;;;15.34;92.50
75317;BME280;63913;51.492;10.368;2023-07-20T04:48:47;98119.88;;;15.33;91.69
75317;BME280;63913;51.492;10.368;2023-07-20T04:51:13;98112.97;;;15.40;90.80
75317;BME280;63913;51.492;10.368;2023-07-20T04:53:39;98110.34;;;15.41;90.34
75317;BME280;63913;51.492;10.368;2023-07-20T04:56:05;98117.25;;;15.44;91.51
75317;BME280;63913;51.492;10.368;2023-07-20T04:58:31;98120.69;;;15.52;90.51
75317;BME280;63913;51.492;10.368;2023-07-20T05:00:56;98114.66;;;15.53;89.58
75317;BME280;63913;51.492;10.368;2023-07-20T05:03:22;98114.63;;;15.51;88.11
75317;BME280;63913;51.492;10.368;2023-07-20T05:05:48;98122.41;;;15.62;89.26
75317;BME280;63913;51.492;10.368;2023-07-20T05:08:14;98126.72;;;15.66;90.01
75317;BME280;63913;51.492;10.368;2023-07-20T05:10:39;98116.34;;;15.66;90.32
75317;BME280;63913;51.492;10.368;2023-07-20T05:13:05;98117.22;;;15.70;90.06
75317;BME280;63913;51.492;10.368;2023-07-20T05:15:33;98116.31;;;15.75;89.83
75317;BME280;63913;51.492;10.368;2023-07-20T05:17:58;98120.63;;;15.81;89.95
75317;BME280;63913;51.492;10.368;2023-07-20T05:20:24;98127.53;;;15.79;88.99
75317;BME280;63913;51.492;10.368;2023-07-20T05:22:50;98115.44;;;15.79;89.48
75317;BME280;63913;51.492;10.368;2023-07-20T05:25:15;98113.75;;;15.71;89.22
75317;BME280;63913;51.492;10.368;2023-07-20T05:27:44;98125.81;;;15.76;91.62
75317;BME280;63913;51.492;10.368;2023-07-20T05:30:09;98128.41;;;15.81;89.90
75317;BME280;63913;51.492;10.368;2023-07-20T05:32:35;98125.81;;;15.81;89.87
75317;BME280;63913;51.492;10.368;2023-07-20T05:35:01;98124.91;;;15.82;90.16
75317;BME280;63913;51.492;10.368;2023-07-20T05:37:26;98128.41;;;15.78;90.38
75317;BME280;63913;51.492;10.368;2023-07-20T05:39:52;98130.97;;;15.84;90.60
75317;BME280;63913;51.492;10.368;2023-07-20T05:42:17;98125.78;;;15.87;89.64
75317;BME280;63913;51.492;10.368;2023-07-20T05:44:43;98130.09;;;15.85;90.02
75317;BME280;63913;51.492;10.368;2023-07-20T05:47:08;98124.03;;;15.83;89.79
75317;BME280;63913;51.492;10.368;2023-07-20T05:49:36;98126.59;;;15.90;90.63
75317;BME280;63913;51.492;10.368;2023-07-20T05:52:02;98125.72;;;15.91;89.88
75317;BME280;63913;51.492;10.368;2023-07-20T05:54:27;98123.09;;;15.99;89.21
75317;BME280;63913;51.492;10.368;2023-07-20T05:56:54;98132.66;;;15.97;88.62
75317;BME280;63913;51.492;10.368;2023-07-20T05:59:19;98121.38;;;15.99;88.59
75317;BME280;63913;51.492;10.368;2023-07-20T06:01:45;98123.09;;;16.03;89.63
75317;BME280;63913;51.492;10.368;2023-07-20T06:04:10;98118.78;;;16.04;88.39
75317;BME280;63913;51.492;10.368;2023-07-20T06:06:36;98122.19;;;16.08;89.30
75317;BME280;63913;51.492;10.368;2023-07-20T06:09:02;98123.88;;;16.15;89.20
75317;BME280;63913;51.492;10.368;2023-07-20T06:11:32;98128.19;;;16.14;88.51
75317;BME280;63913;51.492;10.368;2023-07-20T06:13:58;98127.34;;;16.14;88.76
75317;BME280;63913;51.492;10.368;2023-07-20T06:16:24;98122.16;;;16.14;88.04
75317;BME280;63913;51.492;10.368;2023-07-20T06:18:52;98123.00;;;16.17;88.26
75317;BME280;63913;51.492;10.368;2023-07-20T06:21:17;98129.09;;;16.13;87.83
75317;BME280;63913;51.492;10.368;2023-07-20T06:23:43;98131.69;;;16.12;87.46
75317;BME280;63913;51.492;10.368;2023-07-20T06:26:08;98128.22;;;16.13;87.32
75317;BME280;63913;51.492;10.368;2023-07-20T06:28:34;98128.25;;;16.08;86.97
75317;BME280;63913;51.492;10.368;2023-07-20T06:31:01;98130.81;;;16.11;88.04
75317;BME280;63913;51.492;10.368;2023-07-20T06:33:26;98125.59;;;16.19;89.33
75317;BME280;63913;51.492;10.368;2023-07-20T06:35:52;98126.44;;;16.21;88.33
75317;BME280;63913;51.492;10.368;2023-07-20T06:38:18;98135.91;;;16.29;88.39
75317;BME280;63913;51.492;10.368;2023-07-20T06:40:46;98130.69;;;16.31;88.51
75317;BME280;63913;51.492;10.368;2023-07-20T06:43:11;98130.72;;;16.28;88.41
75317;BME280;63913;51.492;10.368;2023-07-20T06:45:36;98131.59;;;16.28;88.67
75317;BME280;63913;51.492;10.368;2023-07-20T06:48:02;98127.28;;;16.29;87.34
75317;BME280;63913;51.492;10.368;2023-07-20T06:50:27;98132.41;;;16.30;87.38
75317;BME280;63913;51.492;10.368;2023-07-20T06:52:53;98129.88;;;16.27;88.25
75317;BME280;63913;51.492;10.368;2023-07-20T06:55:18;98131.56;;;16.31;89.76
75317;BME280;63913;51.492;10.368;2023-07-20T06:57:44;98137.66;;;16.26;90.34
75317;BME280;63913;51.492;10.368;2023-07-20T07:00:09;98139.38;;;16.25;90.68
75317;BME280;63913;51.492;10.368;2023-07-20T07:02:35;98142.03;;;16.21;89.95
75317;BME280;63913;51.492;10.368;2023-07-20T07:05:00;98130.78;;;16.19;90.20
75317;BME280;63913;51.492;10.368;2023-07-20T07:07:26;98135.97;;;16.17;90.62
75317;BME280;63913;51.492;10.368;2023-07-20T07:09:52;98143.84;;;16.03;89.52
75317;BME280;63913;51.492;10.368;2023-07-20T07:12:17;98150.75;;;15.98;90.90
75317;BME280;63913;51.492;10.368;2023-07-20T07:14:43;98154.22;;;16.00;90.52
75317;BME280;63913;51.492;10.368;2023-07-20T07:17:08;98150.78;;;15.97;90.30
75317;BME280;63913;51.492;10.368;2023-07-20T07:19:34;98157.69;;;16.01;91.36
75317;BME280;63913;51.492;10.368;2023-07-20T07:21:59;98156.81;;;15.97;91.11
75317;BME280;63913;51.492;10.368;2023-07-20T07:24:24;98159.41;;;16.05;92.61
75317;BME280;63913;51.492;10.368;2023-07-20T07:26:50;98164.59;;;16.03;92.34
75317;BME280;63913;51.492;10.368;2023-07-20T07:29:15;98161.09;;;16.08;91.79
75317;BME280;63913;51.492;10.368;2023-07-20T07:31:40;98156.78;;;16.10;92.27
75317;BME280;63913;51.492;10.368;2023-07-20T07:34:06;98161.13;;;16.05;90.74
75317;BME280;63913;51.492;10.368;2023-07-20T07:36:32;98167.19;;;16.03;91.77
75317;BME280;63913;51.492;10.368;2023-07-20T07:38:58;98159.41;;;16.02;91.96
75317;BME280;63913;51.492;10.368;2023-07-20T07:41:23;98167.19;;;16.00;91.25
75317;BME280;63913;51.492;10.368;2023-07-20T07:43:49;98164.56;;;16.07;91.28
75317;BME280;63913;51.492;10.368;2023-07-20T07:46:14;98172.41;;;15.96;89.76
75317;BME280;63913;51.492;10.368;2023-07-20T07:48:40;98178.50;;;15.89;89.44
75317;BME280;63913;51.492;10.368;2023-07-20T07:51:05;98169.81;;;15.90;89.80
75317;BME280;63913;51.492;10.368;2023-07-20T07:53:31;98173.28;;;15.96;90.57
75317;BME280;63913;51.492;10.368;2023-07-20T07:55:57;98164.59;;;16.03;88.01
75317;BME280;63913;51.492;10.368;2023-07-20T07:58:23;98163.66;;;16.14;89.28
75317;BME280;63913;51.492;10.368;2023-07-20T08:00:49;98171.44;;;16.15;89.48
75317;BME280;63913;51.492;10.368;2023-07-20T08:03:14;98167.97;;;16.18;89.06
75317;BME280;63913;51.492;10.368;2023-07-20T08:05:40;98181.81;;;16.15;89.41
75317;BME280;63913;51.492;10.368;2023-07-20T08:08:05;98180.97;;;16.09;90.57
75317;BME280;63913;51.492;10.368;2023-07-20T08:10:31;98188.00;;;15.84;90.43
75317;BME280;63913;51.492;10.368;2023-07-20T08:12:57;98184.56;;;15.79;88.93
75317;BME280;63913;51.492;10.368;2023-07-20T08:15:23;98188.06;;;15.70;87.95
75317;BME280;63913;51.492;10.368;2023-07-20T08:17:48;98187.16;;;15.74;91.26
75317;BME280;63913;51.492;10.368;2023-07-20T08:20:17;98176.78;;;15.77;90.73
75317;BME280;63913;51.492;10.368;2023-07-20T08:22:42;98189.69;;;15.94;90.47
75317;BME280;63913;51.492;10.368;2023-07-20T08:25:08;98189.69;;;15.95;90.97
75317;BME280;63913;51.492;10.368;2023-07-20T08:27:34;98186.28;;;15.89;89.58
75317;BME280;63913;51.492;10.368;2023-07-20T08:30:00;98185.44;;;15.79;89.81
75317;BME280;63913;51.492;10.368;2023-07-20T08:32:26;98192.38;;;15.68;92.09
75317;BME280;63913;51.492;10.368;2023-07-20T08:34:51;98207.94;;;15.51;90.83
75317;BME280;63913;51.492;10.368;2023-07-20T08:37:16;98219.19;;;15.53;91.84
75317;BME280;63913;51.492;10.368;2023-07-20T08:39:42;98216.56;;;15.49;91.13
75317;BME280;63913;51.492;10.368;2023-07-20T08:42:09;98219.16;;;15.52;90.60
75317;BME280;63913;51.492;10.368;2023-07-20T08:44:37;98223.47;;;15.71;92.87
75317;BME280;63913;51.492;10.368;2023-07-20T08:47:04;98214.81;;;15.74;91.31
75317;BME280;63913;51.492;10.368;2023-07-20T08:49:31;98215.69;;;15.80;90.68
75317;BME280;63913;51.492;10.368;2023-07-20T08:51:58;98219.13;;;15.75;90.43
75317;BME280;63913;51.492;10.368;2023-07-20T08:54:25;98225.19;;;15.75;90.11
75317;BME280;63913;51.492;10.368;2023-07-20T08:56:54;98226.06;;;15.71;89.72
75317;BME280;63913;51.492;10.368;2023-07-20T08:59:23;98230.41;;;15.71;89.99
75317;BME280;63913;51.492;10.368;2023-07-20T09:01:50;98232.97;;;15.78;91.30
75317;BME280;63913;51.492;10.368;2023-07-20T09:04:17;98231.22;;;15.86;89.79
75317;BME280;63913;51.492;10.368;2023-07-20T09:06:43;98237.28;;;15.81;88.53
75317;BME280;63913;51.492;10.368;2023-07-20T09:09:08;98240.75;;;15.72;89.21
75317;BME280;63913;51.492;10.368;2023-07-20T09:11:34;98240.75;;;15.77;88.37
75317;BME280;63913;51.492;10.368;2023-07-20T09:14:06;98244.22;;;15.73;89.66
75317;BME280;63913;51.492;10.368;2023-07-20T09:16:32;98242.44;;;15.82;91.32
75317;BME280;63913;51.492;10.368;2023-07-20T09:19:11;98245.91;;;15.75;89.58
75317;BME280;63913;51.492;10.368;2023-07-20T09:21:37;98249.34;;;15.82;90.23
75317;BME280;63913;51.492;10.368;2023-07-20T09:24:02;98245.91;;;15.83;89.61
75317;BME280;63913;51.492;10.368;2023-07-20T09:26:28;98250.22;;;15.82;88.94
75317;BME280;63913;51.492;10.368;2023-07-20T09:28:53;98253.69;;;15.83;89.96
75317;BME280;63913;51.492;10.368;2023-07-20T09:31:21;98263.22;;;15.78;88.61
75317;BME280;63913;51.492;10.368;2023-07-20T09:33:48;98264.94;;;15.77;89.86
75317;BME280;63913;51.492;10.368;2023-07-20T09:36:14;98260.63;;;15.76;88.95
75317;BME280;63913;51.492;10.368;2023-07-20T09:38:41;98258.88;;;15.78;89.08
75317;BME280;63913;51.492;10.368;2023-07-20T09:41:14;98267.50;;;15.86;87.44
75317;BME280;63913;51.492;10.368;2023-07-20T09:43:40;98269.22;;;15.81;87.83
75317;BME280;63913;51.492;10.368;2023-07-20T09:46:06;98280.50;;;15.80;86.91
75317;BME280;63913;51.492;10.368;2023-07-20T09:48:32;98276.16;;;15.78;86.97
75317;BME280;63913;51.492;10.368;2023-07-20T09:50:58;98282.22;;;15.74;89.10
75317;BME280;63913;51.492;10.368;2023-07-20T09:53:24;98277.88;;;15.85;87.77
75317;BME280;63913;51.492;10.368;2023-07-20T09:55:51;98276.13;;;15.96;87.85
75317;BME280;63913;51.492;10.368;2023-07-20T09:58:17;98280.41;;;16.09;88.34
75317;BME280;63913;51.492;10.368;2023-07-20T10:00:44;98276.91;;;16.15;86.45
75317;BME280;63913;51.492;10.368;2023-07-20T10:03:18;98278.63;;;16.28;87.21
75317;BME280;63913;51.492;10.368;2023-07-20T10:05:52;98275.16;;;16.27;84.89
75317;BME280;63913;51.492;10.368;2023-07-20T10:08:20;98273.41;;;16.31;84.83
75317;BME280;63913;51.492;10.368;2023-07-20T10:10:48;98278.50;;;16.48;83.18
75317;BME280;63913;51.492;10.368;2023-07-20T10:13:17;98264.63;;;16.59;82.21
75317;BME280;63913;51.492;10.368;2023-07-20T10:15:47;98264.59;;;16.67;83.05
75317;BME280;63913;51.492;10.368;2023-07-20T10:18:29;98267.97;;;16.81;81.96
75317;BME280;63913;51.492;10.368;2023-07-20T10:20:56;98273.16;;;16.81;79.73
75317;BME280;63913;51.492;10.368;2023-07-20T10:23:22;98271.38;;;16.88;82.41
75317;BME280;63913;51.492;10.368;2023-07-20T10:25:49;98275.78;;;16.81;79.41
75317;BME280;63913;51.492;10.368;2023-07-20T10:28:15;98274.91;;;16.79;79.36
75317;BME280;63913;51.492;10.368;2023-07-20T10:30:41;98274.91;;;16.79;80.26
75317;BME280;63913;51.492;10.368;2023-07-20T10:33:08;98273.13;;;16.89;78.96
75317;BME280;63913;51.492;10.368;2023-07-20T10:35:57;98275.66;;;16.95;78.88
75317;BME280;63913;51.492;10.368;2023-07-20T10:38:52;98268.78;;;16.92;78.55
75317;BME280;63913;51.492;10.368;2023-07-20T10:41:19;98269.66;;;16.93;79.03
75317;BME280;63913;51.492;10.368;2023-07-20T10:43:45;98261.81;;;16.96;78.60
75317;BME280;63913;51.492;10.368;2023-07-20T10:46:14;98272.94;;;17.16;76.70
75317;BME280;63913;51.492;10.368;2023-07-20T10:48:59;98275.34;;;17.37;75.78
75317;BME280;63913;51.492;10.368;2023-07-20T10:51:26;98277.09;;;17.35;75.33
75317;BME280;63913;51.492;10.368;2023-07-20T10:53:51;98270.81;;;17.64;74.28
75317;BME280;63913;51.492;10.368;2023-07-20T10:56:22;98266.47;;;17.66;71.50
75317;BME280;63913;51.492;10.368;2023-07-20T10:58:47;98267.97;;;17.86;70.74
75317;BME280;63913;51.492;10.368;2023-07-20T11:01:15;98264.25;;;18.12;67.92
75317;BME280;63913;51.492;10.368;2023-07-20T11:03:41;98252.06;;;18.14;66.76
75317;BME280;63913;51.492;10.368;2023-07-20T11:06:30;98247.47;;;18.36;65.61
75317;BME280;63913;51.492;10.368;2023-07-20T11:11:34;98259.50;;;18.44;66.20
75317;BME280;63913;51.492;10.368;2023-07-20T11:14:05;98254.28;;;18.46;64.39
75317;BME280;63913;51.492;10.368;2023-07-20T11:16:44;98249.94;;;18.46;65.08
75317;BME280;63913;51.492;10.368;2023-07-20T11:19:17;98248.97;;;18.52;67.23
75317;BME280;63913;51.492;10.368;2023-07-20T11:21:45;98242.78;;;18.63;63.86
75317;BME280;63913;51.492;10.368;2023-07-20T11:24:11;98239.31;;;18.63;65.49
75317;BME280;63913;51.492;10.368;2023-07-20T11:29:11;98246.31;;;18.58;62.34
75317;BME280;63913;51.492;10.368;2023-07-20T11:31:41;98251.59;;;18.52;65.04
75317;BME280;63913;51.492;10.368;2023-07-20T11:34:17;98267.38;;;18.40;63.66
75317;BME280;63913;51.492;10.368;2023-07-20T11:36:45;98264.06;;;18.25;64.81
75317;BME280;63913;51.492;10.368;2023-07-20T11:39:12;98265.19;;;18.03;65.54
75317;BME280;63913;51.492;10.368;2023-07-20T11:41:39;98269.59;;;17.98;67.08
75317;BME280;63913;51.492;10.368;2023-07-20T11:44:09;98262.50;;;18.11;67.48
75317;BME280;63913;51.492;10.368;2023-07-20T11:46:42;98258.94;;;18.18;66.74
75317;BME280;63913;51.492;10.368;2023-07-20T11:49:08;98247.00;;;18.02;60.37
75317;BME280;63913;51.492;10.368;2023-07-20T11:51:34;98260.00;;;18.02;60.36
75317;BME280;63913;51.492;10.368;2023-07-20T11:54:01;98265.25;;;17.99;59.17
75317;BME280;63913;51.492;10.368;2023-07-20T11:56:27;98255.75;;;17.95;59.31
75317;BME280;63913;51.492;10.368;2023-07-20T11:58:57;98261.66;;;18.09;56.67
75317;BME280;63913;51.492;10.368;2023-07-20T12:01:25;98262.13;;;18.41;56.99
75317;BME280;63913;51.492;10.368;2023-07-20T12:03:55;98253.09;;;18.73;54.95
75317;BME280;63913;51.492;10.368;2023-07-20T12:06:23;98252.50;;;19.11;55.32
75317;BME280;63913;51.492;10.368;2023-07-20T12:08:49;98249.41;;;19.39;54.64
75317;BME280;63913;51.492;10.368;2023-07-20T12:11:36;98243.78;;;19.64;52.41
75317;BME280;63913;51.492;10.368;2023-07-20T12:14:03;98239.09;;;19.83;52.19
75317;BME280;63913;51.492;10.368;2023-07-20T12:16:29;98242.09;;;20.07;48.43
75317;BME280;63913;51.492;10.368;2023-07-20T12:19:12;98235.50;;;20.34;47.14
75317;BME280;63913;51.492;10.368;2023-07-20T12:21:40;98246.53;;;20.47;44.93
75317;BME280;63913;51.492;10.368;2023-07-20T12:24:08;98246.28;;;20.59;43.12
75317;BME280;63913;51.492;10.368;2023-07-20T12:26:37;98239.22;;;20.63;43.16
75317;BME280;63913;51.492;10.368;2023-07-20T12:29:03;98231.75;;;20.84;42.39
75317;BME280;63913;51.492;10.368;2023-07-20T12:31:29;98235.38;;;20.79;40.65
75317;BME280;63913;51.492;10.368;2023-07-20T12:33:57;98231.56;;;20.92;40.94
75317;BME280;63913;51.492;10.368;2023-07-20T12:36:23;98232.91;;;21.10;41.35
75317;BME280;63913;51.492;10.368;2023-07-20T12:38:49;98226.56;;;21.21;40.88
75317;BME280;63913;51.492;10.368;2023-07-20T12:41:14;98240.06;;;21.39;41.49
75317;BME280;63913;51.492;10.368;2023-07-20T12:43:44;98241.25;;;21.59;40.75
75317;BME280;63913;51.492;10.368;2023-07-20T12:46:10;98233.94;;;21.40;41.11
75317;BME280;63913;51.492;10.368;2023-07-20T12:48:37;98236.97;;;21.57;41.79
75317;BME280;63913;51.492;10.368;2023-07-20T12:51:04;98235.31;;;21.54;41.63
75317;BME280;63913;51.492;10.368;2023-07-20T12:53:31;98227.72;;;21.44;41.29
75317;BME280;63913;51.492;10.368;2023-07-20T12:55:56;98232.81;;;21.13;41.63
75317;BME280;63913;51.492;10.368;2023-07-20T12:58:22;98228.09;;;21.30;41.76
75317;BME280;63913;51.492;10.368;2023-07-20T13:00:48;98218.31;;;21.37;40.77